Airfield :
LOGIN :

Register | Disclaimer

   EN    FR    IT 

 










Legend :    VFR   Marginal VFR   IFR   Intensive IFR   Very Intensive IFR
Visi :
Ceiling :
>= 8 km
>= 3000ft
5 to 8 km
1000 to 3000 ft
1500m to 5 km
500 to 1000 ft
800 to 1500m
200 to 500 ft
< 800m
< 200 ft
Symbols :   Thunderstorms  Fog  Heavy snow  Heavy precipitations  Wind > 20 kt
SIGMETs :     Misc.  Thunderstorms  Icing  Turbulence  Mountain Waves  Volcanic Ashes






- Airport Elevation : 399 ft
- IATA code : KIV


LUKK - Chisinau Int.

CURRENT METAR :
  • 272100Z 31011KT 9999 -RA OVC019 04/M00 Q1003 R08/290152 NOSIG

EXPIRED METARs :
  • 272030Z 32009KT 9999 -RA FEW027 OVC033 04/00 Q1002 R08/290152 NOSIG
  • 272000Z 34011KT 9999 -RA FEW018 OVC035 04/00 Q1002 R08/290152 NOSIG
  • 271930Z 33014KT 9999 -RA FEW021 SCT032 BKN038 04/00 Q1001 R08/CLRD// NOSIG
  • 271900Z 34014KT 9999 -RA OVC045 04/00 Q1001 R08/D NOSIG
  • 271830Z 34013KT 9999 -RA OVC048 04/M00 Q1001 R08/D NOSIG

TAF TAF LUKK
Valid from the 27 at 18:00 until the 28 at 18:00 UTC


271720Z 2718/2818 33012KT 9999 SCT030
TEMPO 2718/2722 BKN012 SCT025CB
BECMG 2801/2803 VRB05KT
BECMG 2809/2811 17009KT



MET'MAP, your aeronautical weather chart ! - Copyright ORBIFLY December 2007 - Disclaimer

ORBIFLY MET'MAP TEAM :

Programming & Development : Alexandra Zaïnal
Concept & original design : Baudouin d'Aumeries
Assistance for programming : Marc-Olivier Méhu
Technical & hardware support : Manuel Goepfert

Contact : metmap@orbifly.com




SOURCES & CREDITS :

   NOAA